Time;durP1;ratioP1;P1;durP2;ratioP2;P2;SDS_P1;SDS_P2;PMS_P1;PMS_P2;Temp;Humidity;BMP_temperature;BMP_pressure;BME280_temperature;BME280_humidity;BME280_pressure;Samples;Min_cycle;Max_cycle;Signal;HPM_P1;HPM_P2
2024/03/25 00:02:11;;;;;;;;;;;6.00;1.00;;;;;;5035770;28;19916;-84
2024/03/25 00:04:37;;;;;;;;;;;6.00;1.00;;;;;;5036413;28;19952;-85
2024/03/25 00:07:02;;;;;;;;;;;5.90;1.00;;;;;;5040221;28;19913;-85
2024/03/25 00:09:28;;;;;;;;;;;5.90;1.00;;;;;;5044368;28;19936;-84
2024/03/25 00:11:54;;;;;;;;;;;5.90;1.00;;;;;;5036401;28;19913;-85
2024/03/25 00:14:22;;;;;;;;;;;5.90;1.00;;;;;;5042088;28;20558;-83
2024/03/25 00:16:48;;;;;;;;;;;5.90;1.00;;;;;;5031042;28;20012;-85
2024/03/25 00:19:14;;;;;;;;;;;5.90;1.00;;;;;;5032202;28;20016;-85
2024/03/25 00:21:39;;;;;;;;;;;5.90;1.00;;;;;;5034613;28;20410;-85
2024/03/25 00:24:05;;;;;;;;;;;5.90;1.00;;;;;;5065803;22;20009;-83
2024/03/25 00:26:30;;;;;;;;;;;5.80;1.00;;;;;;5047968;28;19936;-82
2024/03/25 00:28:56;;;;;;;;;;;5.80;1.00;;;;;;5040188;28;19921;-83
2024/03/25 00:31:21;;;;;;;;;;;5.70;1.00;;;;;;5046046;28;19924;-83
2024/03/25 00:33:47;;;;;;;;;;;5.70;1.00;;;;;;5043145;28;19924;-83
2024/03/25 00:36:12;;;;;;;;;;;5.60;1.00;;;;;;5049469;28;19913;-83
2024/03/25 00:38:38;;;;;;;;;;;5.60;1.00;;;;;;5044337;28;19936;-84
2024/03/25 00:41:03;;;;;;;;;;;5.50;1.00;;;;;;5046976;28;19913;-84
2024/03/25 00:43:29;;;;;;;;;;;5.50;1.00;;;;;;5051012;28;19920;-84
2024/03/25 00:45:54;;;;;;;;;;;5.50;1.00;;;;;;5051971;28;19913;-83
2024/03/25 00:48:20;;;;;;;;;;;5.40;1.00;;;;;;5044455;28;20412;-83
2024/03/25 00:50:45;;;;;;;;;;;5.40;1.00;;;;;;5046060;28;19917;-85
2024/03/25 00:53:12;;;;;;;;;;;5.40;1.00;;;;;;5048215;28;19920;-82
2024/03/25 00:55:37;;;;;;;;;;;5.30;1.00;;;;;;5041917;28;19989;-84
2024/03/25 00:58:03;;;;;;;;;;;5.30;1.00;;;;;;5044233;28;19964;-81
2024/03/25 01:00:29;;;;;;;;;;;5.30;1.00;;;;;;5040634;28;19913;-82
2024/03/25 01:02:54;;;;;;;;;;;5.30;1.00;;;;;;5044646;28;19939;-82
2024/03/25 01:05:20;;;;;;;;;;;5.20;1.00;;;;;;5040018;28;19967;-86
2024/03/25 01:07:45;;;;;;;;;;;5.20;1.00;;;;;;5036418;28;19980;-83
2024/03/25 01:10:11;;;;;;;;;;;5.20;1.00;;;;;;5037688;28;19913;-81
2024/03/25 01:12:36;;;;;;;;;;;5.20;1.00;;;;;;5035111;28;19913;-82
2024/03/25 01:15:03;;;;;;;;;;;5.10;1.00;;;;;;5041416;28;19913;-82
2024/03/25 01:17:28;;;;;;;;;;;5.10;1.00;;;;;;5036181;28;19928;-83
2024/03/25 01:19:53;;;;;;;;;;;5.10;1.00;;;;;;5035818;28;19921;-82
2024/03/25 01:22:19;;;;;;;;;;;5.10;1.00;;;;;;5036357;28;19960;-82
2024/03/25 01:24:44;;;;;;;;;;;5.10;1.00;;;;;;5043592;28;19970;-84
2024/03/25 01:27:10;;;;;;;;;;;5.00;1.00;;;;;;5046539;28;19924;-85
2024/03/25 01:29:35;;;;;;;;;;;5.00;1.00;;;;;;5044928;28;19952;-84
2024/03/25 01:32:02;;;;;;;;;;;5.00;1.00;;;;;;5043345;28;19912;-86
2024/03/25 01:34:28;;;;;;;;;;;5.00;1.00;;;;;;5044556;28;19940;-84
2024/03/25 01:36:53;;;;;;;;;;;5.00;1.00;;;;;;5043481;28;19917;-84
2024/03/25 01:39:18;;;;;;;;;;;4.90;1.00;;;;;;5045667;28;19939;-84
2024/03/25 01:41:45;;;;;;;;;;;4.90;1.00;;;;;;5049595;28;19912;-83
2024/03/25 01:44:10;;;;;;;;;;;4.90;1.00;;;;;;5042462;28;19917;-84
2024/03/25 01:46:36;;;;;;;;;;;4.90;1.00;;;;;;5044363;28;19913;-85
2024/03/25 01:49:02;;;;;;;;;;;4.90;2.50;;;;;;5043362;28;19917;-85
2024/03/25 01:51:27;;;;;;;;;;;4.90;8.80;;;;;;5057692;28;19913;-82
2024/03/25 01:53:54;;;;;;;;;;;4.90;12.50;;;;;;5044681;28;20135;-84
2024/03/25 01:56:21;;;;;;;;;;;5.00;14.90;;;;;;5041887;28;19913;-84
2024/03/25 01:58:46;;;;;;;;;;;5.00;15.30;;;;;;5046438;28;19947;-83
2024/03/25 02:01:14;;;;;;;;;;;5.00;13.10;;;;;;5045822;28;20078;-83
2024/03/25 02:03:43;;;;;;;;;;;5.10;10.40;;;;;;5045477;28;19917;-84
2024/03/25 02:06:15;;;;;;;;;;;5.10;8.90;;;;;;5047354;28;19920;-83
2024/03/25 02:08:41;;;;;;;;;;;5.10;7.60;;;;;;5048345;28;24989;-86
2024/03/25 02:11:06;;;;;;;;;;;5.10;6.10;;;;;;5044212;28;19952;-81
2024/03/25 02:13:32;;;;;;;;;;;5.10;3.10;;;;;;5050803;28;19936;-82
2024/03/25 02:15:57;;;;;;;;;;;5.10;1.00;;;;;;5043947;28;19913;-84
2024/03/25 02:18:23;;;;;;;;;;;5.10;1.60;;;;;;5044156;28;19925;-83
2024/03/25 02:20:49;;;;;;;;;;;5.10;3.20;;;;;;5044500;28;19920;-83
2024/03/25 02:23:14;;;;;;;;;;;5.20;2.80;;;;;;5046578;28;19921;-83
2024/03/25 02:25:41;;;;;;;;;;;5.20;2.80;;;;;;5054415;28;19913;-82
2024/03/25 02:28:07;;;;;;;;;;;5.20;1.00;;;;;;5043260;28;20402;-80
2024/03/25 02:30:32;;;;;;;;;;;5.20;1.00;;;;;;5036552;28;19915;-82
2024/03/25 02:32:58;;;;;;;;;;;5.20;1.00;;;;;;5034852;28;19914;-84
2024/03/25 02:35:24;;;;;;;;;;;5.20;1.00;;;;;;5043692;28;20378;-82
2024/03/25 02:37:51;;;;;;;;;;;5.20;1.00;;;;;;5033074;28;19975;-85
2024/03/25 02:40:17;;;;;;;;;;;5.10;1.00;;;;;;5035307;28;19913;-84
2024/03/25 02:42:42;;;;;;;;;;;5.10;1.00;;;;;;5045025;28;19924;-84
2024/03/25 02:45:08;;;;;;;;;;;5.10;1.00;;;;;;5052138;28;19955;-84
2024/03/25 02:47:33;;;;;;;;;;;5.00;1.00;;;;;;5046664;28;19916;-83
2024/03/25 02:49:59;;;;;;;;;;;4.90;1.00;;;;;;5043012;28;19913;-86
2024/03/25 02:52:24;;;;;;;;;;;4.90;1.00;;;;;;5043656;28;19913;-85
2024/03/25 02:54:50;;;;;;;;;;;4.80;1.00;;;;;;5044869;28;19924;-83
2024/03/25 02:57:15;;;;;;;;;;;4.80;1.00;;;;;;5044380;28;19909;-84
2024/03/25 02:59:41;;;;;;;;;;;4.70;1.00;;;;;;5047449;28;19951;-84
2024/03/25 03:02:06;;;;;;;;;;;4.70;1.00;;;;;;5048388;28;19917;-84
2024/03/25 03:04:32;;;;;;;;;;;4.70;1.00;;;;;;5053786;28;19932;-83
2024/03/25 03:06:57;;;;;;;;;;;4.60;1.00;;;;;;5046226;28;19913;-81
2024/03/25 03:09:23;;;;;;;;;;;4.60;1.00;;;;;;5046144;28;19916;-83
2024/03/25 03:11:48;;;;;;;;;;;4.60;1.00;;;;;;5055643;28;19984;-84
2024/03/25 03:14:14;;;;;;;;;;;4.50;1.00;;;;;;5047482;28;19913;-84
2024/03/25 03:16:39;;;;;;;;;;;4.50;1.00;;;;;;5049517;28;19917;-82
2024/03/25 03:19:05;;;;;;;;;;;4.50;1.00;;;;;;5046085;28;19920;-84
2024/03/25 03:21:31;;;;;;;;;;;4.40;1.00;;;;;;5056203;28;19921;-84
2024/03/25 03:23:56;;;;;;;;;;;4.40;1.00;;;;;;5049206;28;19948;-84
2024/03/25 03:26:26;;;;;;;;;;;4.40;1.00;;;;;;5047247;28;19999;-83
2024/03/25 03:28:52;;;;;;;;;;;4.30;1.60;;;;;;5050479;28;19921;-86
2024/03/25 03:31:18;;;;;;;;;;;4.30;2.30;;;;;;5054034;28;19981;-81
2024/03/25 03:33:43;;;;;;;;;;;4.30;2.00;;;;;;5045383;28;19940;-83
2024/03/25 03:36:09;;;;;;;;;;;4.30;1.90;;;;;;5055429;28;19924;-82
2024/03/25 03:38:34;;;;;;;;;;;4.20;3.40;;;;;;5046005;28;19920;-82
2024/03/25 03:41:01;;;;;;;;;;;4.20;3.70;;;;;;5048714;28;20620;-84
2024/03/25 03:43:26;;;;;;;;;;;4.20;3.70;;;;;;5046181;28;19981;-84
2024/03/25 03:45:52;;;;;;;;;;;4.20;4.10;;;;;;5045172;28;19913;-84
2024/03/25 03:48:17;;;;;;;;;;;4.20;5.00;;;;;;5053554;28;19917;-86
2024/03/25 03:50:43;;;;;;;;;;;4.10;5.90;;;;;;5046492;28;19917;-83
2024/03/25 03:53:09;;;;;;;;;;;4.10;6.70;;;;;;5043154;28;19988;-82
2024/03/25 03:55:35;;;;;;;;;;;4.10;7.50;;;;;;5045928;28;19913;-84
2024/03/25 03:58:00;;;;;;;;;;;4.10;8.80;;;;;;5047491;28;20011;-85
2024/03/25 04:00:25;;;;;;;;;;;4.10;7.70;;;;;;5045753;28;19920;-83
2024/03/25 04:02:51;;;;;;;;;;;4.00;7.40;;;;;;5046854;28;20004;-83
2024/03/25 04:05:16;;;;;;;;;;;4.00;9.60;;;;;;5045201;28;19913;-83
2024/03/25 04:07:43;;;;;;;;;;;4.00;11.10;;;;;;5050870;28;19944;-83
2024/03/25 04:10:09;;;;;;;;;;;3.90;12.90;;;;;;5044615;28;19964;-83
2024/03/25 04:12:35;;;;;;;;;;;3.90;14.30;;;;;;5046749;28;19913;-85
2024/03/25 04:15:00;;;;;;;;;;;3.90;15.00;;;;;;5046795;28;19913;-84
2024/03/25 04:17:26;;;;;;;;;;;3.90;15.30;;;;;;5046783;28;20000;-82
2024/03/25 04:19:51;;;;;;;;;;;3.90;16.50;;;;;;5047065;28;19952;-84
2024/03/25 04:22:17;;;;;;;;;;;3.90;16.30;;;;;;5048187;28;19967;-83
2024/03/25 04:24:43;;;;;;;;;;;3.90;17.70;;;;;;5048791;28;19952;-85
2024/03/25 04:27:08;;;;;;;;;;;3.80;18.10;;;;;;5047687;28;19924;-84
2024/03/25 04:29:34;;;;;;;;;;;3.80;19.50;;;;;;5045985;28;19968;-85
2024/03/25 04:31:59;;;;;;;;;;;3.80;21.40;;;;;;5047797;28;20291;-82
2024/03/25 04:34:25;;;;;;;;;;;3.80;22.20;;;;;;5046014;28;19948;-81
2024/03/25 04:36:50;;;;;;;;;;;3.80;22.50;;;;;;5038881;28;19913;-83
2024/03/25 04:39:16;;;;;;;;;;;3.80;21.50;;;;;;5046940;28;19984;-84
2024/03/25 04:41:41;;;;;;;;;;;3.70;21.20;;;;;;5040634;28;19925;-81
2024/03/25 04:44:07;;;;;;;;;;;3.70;20.50;;;;;;5047127;28;19917;-84
2024/03/25 04:46:32;;;;;;;;;;;3.70;20.70;;;;;;5051986;28;19940;-84
2024/03/25 04:48:58;;;;;;;;;;;3.70;21.80;;;;;;5056676;28;19917;-84
2024/03/25 04:51:23;;;;;;;;;;;3.70;23.20;;;;;;5043364;28;19940;-83
2024/03/25 04:53:49;;;;;;;;;;;3.60;24.00;;;;;;5048964;28;19913;-83
2024/03/25 04:56:14;;;;;;;;;;;3.60;24.70;;;;;;5042482;28;19925;-83
2024/03/25 04:58:40;;;;;;;;;;;3.60;24.70;;;;;;5045630;28;19917;-84
2024/03/25 05:01:05;;;;;;;;;;;3.60;24.40;;;;;;5043875;28;19913;-84
2024/03/25 05:03:31;;;;;;;;;;;3.60;23.70;;;;;;5044457;28;19913;-85
2024/03/25 05:05:56;;;;;;;;;;;3.60;22.60;;;;;;5044211;28;19986;-82
2024/03/25 05:08:22;;;;;;;;;;;3.60;22.80;;;;;;5059624;28;20283;-82
2024/03/25 05:10:47;;;;;;;;;;;3.60;21.40;;;;;;5043048;28;19980;-83
2024/03/25 05:13:12;;;;;;;;;;;3.50;20.50;;;;;;5050645;28;19924;-83
2024/03/25 05:15:38;;;;;;;;;;;3.50;20.20;;;;;;5051258;28;19917;-83
2024/03/25 05:18:04;;;;;;;;;;;3.60;20.00;;;;;;5043340;28;20375;-82
2024/03/25 05:20:29;;;;;;;;;;;3.60;19.90;;;;;;5042442;28;19913;-81
2024/03/25 05:22:54;;;;;;;;;;;3.60;19.70;;;;;;5047125;28;19913;-85
2024/03/25 05:25:24;;;;;;;;;;;3.60;18.90;;;;;;5041354;28;19981;-83
2024/03/25 05:27:49;;;;;;;;;;;3.60;18.00;;;;;;5047956;28;19920;-83
2024/03/25 05:30:15;;;;;;;;;;;3.60;17.70;;;;;;5044391;28;19916;-84
2024/03/25 05:32:40;;;;;;;;;;;3.60;16.40;;;;;;5055091;28;19913;-83
2024/03/25 05:35:06;;;;;;;;;;;3.60;14.70;;;;;;5044385;28;19914;-83
2024/03/25 05:37:33;;;;;;;;;;;3.60;13.40;;;;;;5044555;28;19913;-82
2024/03/25 05:39:59;;;;;;;;;;;3.70;13.10;;;;;;5043738;28;20019;-83
2024/03/25 05:42:24;;;;;;;;;;;3.70;12.70;;;;;;5054527;28;19955;-85
2024/03/25 05:44:50;;;;;;;;;;;3.80;10.40;;;;;;5044634;28;20953;-83
2024/03/25 05:47:15;;;;;;;;;;;3.90;8.20;;;;;;5042148;28;20011;-82
2024/03/25 05:49:41;;;;;;;;;;;4.20;9.70;;;;;;5033003;28;19928;-81
2024/03/25 05:52:07;;;;;;;;;;;4.40;2.80;;;;;;5033611;28;20387;-81
2024/03/25 05:54:32;;;;;;;;;;;4.80;1.00;;;;;;5039839;28;19917;-84
2024/03/25 05:56:58;;;;;;;;;;;5.20;1.00;;;;;;5036171;28;19944;-83
2024/03/25 05:59:23;;;;;;;;;;;5.60;1.00;;;;;;5031814;28;19924;-82
2024/03/25 06:01:48;;;;;;;;;;;6.10;1.00;;;;;;5034687;28;19921;-82
2024/03/25 06:04:14;;;;;;;;;;;7.60;1.00;;;;;;5034390;28;20382;-80
2024/03/25 06:06:39;;;;;;;;;;;9.80;99.90;;;;;;5034689;28;19920;-84
2024/03/25 06:09:05;;;;;;;;;;;12.00;1.00;;;;;;5035568;28;19945;-86
2024/03/25 06:11:31;;;;;;;;;;;13.80;99.90;;;;;;5033919;28;19913;-83
2024/03/25 06:13:56;;;;;;;;;;;15.30;1.00;;;;;;5052391;28;19916;-84
2024/03/25 06:16:22;;;;;;;;;;;16.50;1.00;;;;;;5045798;28;20417;-85
2024/03/25 06:18:47;;;;;;;;;;;17.70;1.00;;;;;;5048492;28;20003;-86
2024/03/25 06:21:13;;;;;;;;;;;18.90;1.00;;;;;;5048334;28;19921;-85
2024/03/25 06:23:38;;;;;;;;;;;20.00;99.90;;;;;;5071544;22;20315;-83
2024/03/25 06:26:04;;;;;;;;;;;21.00;99.90;;;;;;5042444;28;19917;-82
2024/03/25 06:28:29;;;;;;;;;;;22.10;99.90;;;;;;5036695;28;20498;-84
2024/03/25 06:36:23;;;;;;;;;;;23.40;99.90;;;;;;5041161;28;20009;-84
2024/03/25 06:38:48;;;;;;;;;;;23.10;99.90;;;;;;5048843;28;19956;-84
2024/03/25 06:41:14;;;;;;;;;;;22.90;99.90;;;;;;5041425;28;19913;-84
2024/03/25 06:43:39;;;;;;;;;;;23.00;99.90;;;;;;5040668;28;19967;-84
2024/03/25 06:46:06;;;;;;;;;;;23.00;99.90;;;;;;5039730;28;19936;-84
2024/03/25 06:48:31;;;;;;;;;;;22.90;99.90;;;;;;5052165;28;19967;-84
2024/03/25 06:50:57;;;;;;;;;;;22.40;99.90;;;;;;5051111;28;19917;-84
2024/03/25 06:53:23;;;;;;;;;;;22.30;99.90;;;;;;5055968;28;20402;-84
2024/03/25 06:55:54;;;;;;;;;;;21.70;99.90;;;;;;5056079;28;19928;-84
2024/03/25 06:58:21;;;;;;;;;;;21.10;99.90;;;;;;5045903;28;19917;-82
2024/03/25 07:00:46;;;;;;;;;;;20.40;99.90;;;;;;5048179;28;20279;-83
2024/03/25 07:03:12;;;;;;;;;;;20.70;99.90;;;;;;5049039;28;19927;-83
2024/03/25 07:05:37;;;;;;;;;;;20.20;99.90;;;;;;5043895;28;19920;-83
2024/03/25 07:08:03;;;;;;;;;;;18.50;99.90;;;;;;5065133;28;19914;-83
2024/03/25 07:10:28;;;;;;;;;;;17.10;99.90;;;;;;5052687;28;19919;-84
2024/03/25 07:12:54;;;;;;;;;;;16.00;99.90;;;;;;5052326;28;20302;-84
2024/03/25 07:15:19;;;;;;;;;;;15.20;99.90;;;;;;5054037;28;19921;-84
2024/03/25 07:17:45;;;;;;;;;;;14.80;99.90;;;;;;5052391;28;19920;-84
2024/03/25 07:20:10;;;;;;;;;;;14.40;99.90;;;;;;5056119;28;19923;-85
2024/03/25 07:22:36;;;;;;;;;;;14.60;99.90;;;;;;5052574;28;20441;-83
2024/03/25 07:25:01;;;;;;;;;;;15.50;99.90;;;;;;5050433;28;19921;-85
2024/03/25 07:27:27;;;;;;;;;;;17.90;99.90;;;;;;5054821;28;20003;-85
2024/03/25 07:29:52;;;;;;;;;;;20.60;99.90;;;;;;5050730;28;19924;-84
2024/03/25 07:32:18;;;;;;;;;;;22.70;99.90;;;;;;5051812;28;20016;-85
2024/03/25 07:34:43;;;;;;;;;;;24.50;99.90;;;;;;5046151;28;20367;-85
2024/03/25 07:37:09;;;;;;;;;;;25.90;99.90;;;;;;5068630;28;19935;-85
2024/03/25 07:39:34;;;;;;;;;;;27.50;99.90;;;;;;5052484;28;20375;-86
2024/03/25 07:42:00;;;;;;;;;;;28.80;99.90;;;;;;5048695;28;20291;-86
2024/03/25 07:44:25;;;;;;;;;;;29.90;99.90;;;;;;5051567;28;19913;-85
2024/03/25 07:46:51;;;;;;;;;;;30.80;99.90;;;;;;5049687;28;19955;-86
2024/03/25 07:49:17;;;;;;;;;;;31.60;99.90;;;;;;5047038;28;20449;-86
2024/03/25 07:51:42;;;;;;;;;;;32.30;99.90;;;;;;5051683;28;19979;-86
2024/03/25 07:54:10;;;;;;;;;;;32.60;99.90;;;;;;5050202;28;19913;-84
2024/03/25 07:56:37;;;;;;;;;;;33.10;99.90;;;;;;5043466;28;19921;-86
2024/03/25 07:59:03;;;;;;;;;;;33.00;99.90;;;;;;5045300;28;20291;-87
2024/03/25 08:01:29;;;;;;;;;;;33.30;99.90;;;;;;5052086;28;19920;-86
2024/03/25 08:03:54;;;;;;;;;;;33.70;99.90;;;;;;5049767;28;19913;-86
2024/03/25 08:06:21;;;;;;;;;;;33.90;99.90;;;;;;5047088;28;19992;-84
2024/03/25 08:08:46;;;;;;;;;;;33.50;99.90;;;;;;5051582;28;19924;-86
2024/03/25 08:11:12;;;;;;;;;;;32.90;99.90;;;;;;5068490;28;19913;-84
2024/03/25 08:13:38;;;;;;;;;;;33.00;99.90;;;;;;5049438;28;19952;-86
2024/03/25 08:16:03;;;;;;;;;;;33.10;99.90;;;;;;5052546;28;19935;-86
2024/03/25 08:18:29;;;;;;;;;;;33.40;99.90;;;;;;5049725;28;19996;-84
2024/03/25 08:20:54;;;;;;;;;;;32.80;99.90;;;;;;5043505;28;19925;-86
2024/03/25 08:23:20;;;;;;;;;;;32.30;99.90;;;;;;5046139;28;19921;-84
2024/03/25 08:25:45;;;;;;;;;;;32.50;99.90;;;;;;5052226;28;19912;-85
2024/03/25 08:28:10;;;;;;;;;;;33.00;99.90;;;;;;5053274;28;19954;-86
2024/03/25 08:30:36;;;;;;;;;;;33.70;99.90;;;;;;5049148;28;19919;-86
2024/03/25 08:33:02;;;;;;;;;;;34.50;99.90;;;;;;5049264;28;19912;-84
2024/03/25 08:35:27;;;;;;;;;;;35.00;99.90;;;;;;5053640;28;19952;-86
2024/03/25 08:37:53;;;;;;;;;;;35.50;99.90;;;;;;5047762;28;19917;-84
2024/03/25 08:40:18;;;;;;;;;;;35.60;99.90;;;;;;5052442;28;19917;-86
2024/03/25 08:42:44;;;;;;;;;;;35.00;99.90;;;;;;5052166;28;20007;-86
2024/03/25 08:45:10;;;;;;;;;;;34.80;99.90;;;;;;5046934;28;19913;-85
2024/03/25 08:47:38;;;;;;;;;;;34.10;99.90;;;;;;5051893;28;20137;-86
2024/03/25 08:50:03;;;;;;;;;;;34.10;99.90;;;;;;5035610;28;19924;-86
2024/03/25 08:52:29;;;;;;;;;;;34.30;99.90;;;;;;5036372;28;19917;-85
2024/03/25 08:54:54;;;;;;;;;;;34.60;99.90;;;;;;5033171;28;19952;-86
2024/03/25 08:57:20;;;;;;;;;;;34.60;99.90;;;;;;5042608;28;19943;-84
2024/03/25 08:59:45;;;;;;;;;;;35.00;99.90;;;;;;5036435;28;19917;-86
2024/03/25 09:02:10;;;;;;;;;;;35.60;99.90;;;;;;5035280;28;19915;-85
2024/03/25 09:04:36;;;;;;;;;;;36.20;99.90;;;;;;5049477;28;19913;-86
2024/03/25 09:07:02;;;;;;;;;;;36.30;99.90;;;;;;5047471;28;20364;-85
2024/03/25 09:12:12;;;;;;;;;;;36.80;99.90;;;;;;5039105;28;19978;-85
2024/03/25 09:14:38;;;;;;;;;;;37.20;99.90;;;;;;5035222;28;19924;-86
2024/03/25 09:17:04;;;;;;;;;;;37.60;99.90;;;;;;5032559;28;19919;-86
2024/03/25 09:19:29;;;;;;;;;;;37.70;99.90;;;;;;5040567;28;19920;-86
2024/03/25 09:21:54;;;;;;;;;;;37.70;99.90;;;;;;5035331;28;19963;-86
2024/03/25 09:24:20;;;;;;;;;;;37.00;99.90;;;;;;5037327;28;19917;-85
2024/03/25 09:26:49;;;;;;;;;;;37.60;99.90;;;;;;5044708;28;19967;-84
2024/03/25 09:29:14;;;;;;;;;;;36.60;99.90;;;;;;5045890;28;19912;-85
2024/03/25 09:31:40;;;;;;;;;;;37.00;99.90;;;;;;5038922;28;20294;-84
2024/03/25 09:34:05;;;;;;;;;;;37.00;99.90;;;;;;5040495;28;19925;-86
2024/03/25 09:36:31;;;;;;;;;;;37.50;99.90;;;;;;5045240;28;19925;-86
2024/03/25 09:38:56;;;;;;;;;;;38.10;99.90;;;;;;5038228;28;19923;-86
2024/03/25 09:41:22;;;;;;;;;;;38.50;99.90;;;;;;5044110;28;19920;-83
2024/03/25 09:43:50;;;;;;;;;;;39.00;99.90;;;;;;5044063;28;20003;-87
2024/03/25 09:46:16;;;;;;;;;;;38.60;99.90;;;;;;5041840;28;19913;-87
2024/03/25 09:48:42;;;;;;;;;;;38.70;99.90;;;;;;5042889;28;19920;-85
2024/03/25 09:51:08;;;;;;;;;;;38.80;99.90;;;;;;5042838;28;19924;-86
2024/03/25 09:53:34;;;;;;;;;;;37.50;99.90;;;;;;5038817;28;19984;-86
2024/03/25 09:56:00;;;;;;;;;;;35.70;99.90;;;;;;5035863;28;20047;-86
2024/03/25 09:58:26;;;;;;;;;;;34.40;99.90;;;;;;5043310;28;19958;-86
2024/03/25 10:00:51;;;;;;;;;;;34.60;99.90;;;;;;5042433;28;19913;-85
2024/03/25 10:03:17;;;;;;;;;;;34.40;99.90;;;;;;5039922;28;20011;-84
2024/03/25 10:05:42;;;;;;;;;;;34.00;99.90;;;;;;5042025;28;19917;-86
2024/03/25 10:08:08;;;;;;;;;;;33.30;99.90;;;;;;5044152;28;19921;-85
2024/03/25 10:10:34;;;;;;;;;;;32.60;99.90;;;;;;5043035;28;19917;-83
2024/03/25 10:12:59;;;;;;;;;;;32.30;99.90;;;;;;5046905;28;19920;-84
2024/03/25 10:15:26;;;;;;;;;;;32.20;99.90;;;;;;5042492;28;19960;-86
2024/03/25 10:17:52;;;;;;;;;;;32.20;99.90;;;;;;5045913;28;19920;-83
2024/03/25 10:20:18;;;;;;;;;;;31.40;99.90;;;;;;5049301;28;19916;-86
2024/03/25 10:22:44;;;;;;;;;;;31.30;99.90;;;;;;5045486;28;19959;-85
2024/03/25 10:25:22;;;;;;;;;;;31.70;99.90;;;;;;5045027;28;19916;-86
2024/03/25 10:27:58;;;;;;;;;;;32.20;99.90;;;;;;5046577;28;19955;-86
2024/03/25 10:30:23;;;;;;;;;;;32.50;99.90;;;;;;5042681;28;19920;-83
2024/03/25 10:32:58;;;;;;;;;;;32.50;99.90;;;;;;5043193;28;20450;-86
2024/03/25 10:35:27;;;;;;;;;;;32.80;99.90;;;;;;5047251;28;19920;-87
2024/03/25 10:38:19;;;;;;;;;;;33.40;99.90;;;;;;5040664;28;19999;-86
2024/03/25 10:40:45;;;;;;;;;;;33.20;99.90;;;;;;5040178;28;19962;-85
2024/03/25 10:43:11;;;;;;;;;;;33.00;99.90;;;;;;5046800;28;19913;-85
2024/03/25 10:45:47;;;;;;;;;;;32.60;99.90;;;;;;5045159;28;19927;-84
2024/03/25 10:48:21;;;;;;;;;;;32.40;99.90;;;;;;5049368;28;19913;-86
2024/03/25 10:50:47;;;;;;;;;;;32.50;99.90;;;;;;5048618;28;19920;-87
2024/03/25 10:53:14;;;;;;;;;;;32.50;99.90;;;;;;5046233;28;20259;-85
2024/03/25 10:55:39;;;;;;;;;;;32.70;99.90;;;;;;5041998;28;20271;-84
2024/03/25 10:58:06;;;;;;;;;;;33.50;99.90;;;;;;5043174;28;20007;-85
2024/03/25 11:00:32;;;;;;;;;;;33.60;99.90;;;;;;5037132;28;19956;-85
2024/03/25 11:02:58;;;;;;;;;;;33.20;99.90;;;;;;5045533;28;19921;-85
2024/03/25 11:05:24;;;;;;;;;;;32.70;98.90;;;;;;5040322;28;19925;-85
2024/03/25 11:07:50;;;;;;;;;;;32.40;98.50;;;;;;5036317;28;20371;-84
2024/03/25 11:10:15;;;;;;;;;;;31.80;96.30;;;;;;5041033;28;19913;-84
2024/03/25 11:12:41;;;;;;;;;;;30.90;94.00;;;;;;5040127;28;19966;-86
2024/03/25 11:15:08;;;;;;;;;;;30.30;92.40;;;;;;5037090;28;20326;-85
2024/03/25 11:17:33;;;;;;;;;;;31.00;94.70;;;;;;5041822;28;20359;-85
2024/03/25 11:20:10;;;;;;;;;;;32.00;96.70;;;;;;5041042;28;19927;-86
2024/03/25 11:22:35;;;;;;;;;;;32.50;98.50;;;;;;5056932;28;19942;-85
2024/03/25 11:25:07;;;;;;;;;;;32.10;96.50;;;;;;5046521;28;19925;-86
2024/03/25 11:27:36;;;;;;;;;;;31.10;94.50;;;;;;5046646;28;19975;-86
2024/03/25 11:30:02;;;;;;;;;;;30.20;91.80;;;;;;5039613;28;19952;-85
2024/03/25 11:32:27;;;;;;;;;;;30.00;91.80;;;;;;5046923;28;19959;-86
2024/03/25 11:34:53;;;;;;;;;;;30.30;92.90;;;;;;5036960;28;19920;-86
2024/03/25 11:37:19;;;;;;;;;;;31.10;94.90;;;;;;5042587;28;20310;-85
2024/03/25 11:39:44;;;;;;;;;;;31.50;95.40;;;;;;5041435;28;20008;-85
2024/03/25 11:42:10;;;;;;;;;;;31.10;94.80;;;;;;5039922;28;20099;-85
2024/03/25 11:44:37;;;;;;;;;;;30.60;93.30;;;;;;5041162;28;20049;-85
2024/03/25 11:47:04;;;;;;;;;;;29.70;90.40;;;;;;5044352;28;19917;-86
2024/03/25 11:49:29;;;;;;;;;;;29.00;87.30;;;;;;5041888;28;19917;-87
2024/03/25 11:51:55;;;;;;;;;;;29.00;88.30;;;;;;5034800;28;19920;-86
2024/03/25 11:54:20;;;;;;;;;;;28.90;89.00;;;;;;5045655;28;20353;-86
2024/03/25 11:56:46;;;;;;;;;;;29.10;90.10;;;;;;5039471;28;19924;-87
2024/03/25 11:59:12;;;;;;;;;;;29.80;91.10;;;;;;5035099;28;19923;-86
2024/03/25 12:01:41;;;;;;;;;;;29.60;91.00;;;;;;5031171;28;20020;-86
2024/03/25 12:04:10;;;;;;;;;;;29.60;91.30;;;;;;5039203;28;19920;-86
2024/03/25 12:06:35;;;;;;;;;;;29.60;91.30;;;;;;5034042;28;19975;-85
2024/03/25 12:11:45;;;;;;;;;;;28.80;86.90;;;;;;5038933;28;19919;-85
2024/03/25 12:14:11;;;;;;;;;;;28.50;87.00;;;;;;5037766;28;19912;-86
2024/03/25 12:16:36;;;;;;;;;;;28.40;86.00;;;;;;5041307;28;19917;-84
2024/03/25 12:19:02;;;;;;;;;;;28.60;87.80;;;;;;5034424;28;19924;-86
2024/03/25 12:21:27;;;;;;;;;;;28.80;88.90;;;;;;5039620;28;19939;-86
2024/03/25 12:23:53;;;;;;;;;;;29.00;89.60;;;;;;5036799;28;19916;-86
2024/03/25 12:26:20;;;;;;;;;;;28.90;89.10;;;;;;5039990;28;20443;-85
2024/03/25 12:28:45;;;;;;;;;;;28.50;86.30;;;;;;5039769;28;20585;-82
2024/03/25 12:31:14;;;;;;;;;;;27.80;81.50;;;;;;5041623;28;20023;-85
2024/03/25 12:33:43;;;;;;;;;;;28.10;84.60;;;;;;5037471;28;19913;-86
2024/03/25 12:36:11;;;;;;;;;;;28.50;87.80;;;;;;5042071;28;20350;-85
2024/03/25 12:38:36;;;;;;;;;;;28.80;89.00;;;;;;5035940;28;20002;-88
2024/03/25 12:41:06;;;;;;;;;;;28.60;88.30;;;;;;5040990;28;20382;-88
2024/03/25 12:43:32;;;;;;;;;;;28.00;94.80;;;;;;5039289;28;19920;-86
2024/03/25 12:45:58;;;;;;;;;;;27.30;79.60;;;;;;5048040;28;19913;-85
2024/03/25 12:48:24;;;;;;;;;;;27.10;77.90;;;;;;5049495;28;19920;-86
2024/03/25 12:50:49;;;;;;;;;;;27.10;78.10;;;;;;5044766;28;19921;-85
2024/03/25 12:53:17;;;;;;;;;;;27.30;80.30;;;;;;5052272;28;19921;-87
2024/03/25 12:55:43;;;;;;;;;;;27.20;80.60;;;;;;5045544;28;20035;-85
2024/03/25 12:58:08;;;;;;;;;;;27.20;80.60;;;;;;5042046;28;20454;-86
2024/03/25 13:00:33;;;;;;;;;;;26.90;77.00;;;;;;5044215;28;20001;-86
2024/03/25 13:03:00;;;;;;;;;;;26.20;74.40;;;;;;5047052;28;19924;-87
2024/03/25 13:05:25;;;;;;;;;;;25.80;71.90;;;;;;5056766;28;19913;-87
2024/03/25 13:07:51;;;;;;;;;;;25.80;73.10;;;;;;5045271;28;19923;-85
2024/03/25 13:10:16;;;;;;;;;;;25.70;73.40;;;;;;5042339;28;19912;-87
2024/03/25 13:12:42;;;;;;;;;;;25.90;74.60;;;;;;5043566;28;19999;-87
2024/03/25 13:15:08;;;;;;;;;;;25.90;75.70;;;;;;5049972;28;19962;-85
2024/03/25 13:17:33;;;;;;;;;;;26.10;77.60;;;;;;5029611;28;19986;-86
2024/03/25 13:19:59;;;;;;;;;;;26.10;77.60;;;;;;5035182;28;19925;-86
2024/03/25 13:22:25;;;;;;;;;;;25.80;74.30;;;;;;5054679;28;20298;-85
2024/03/25 13:24:50;;;;;;;;;;;26.00;92.10;;;;;;5030781;28;19917;-86
2024/03/25 13:27:16;;;;;;;;;;;26.30;78.80;;;;;;5040177;28;19913;-85
2024/03/25 13:29:41;;;;;;;;;;;26.50;81.40;;;;;;5049944;28;20282;-84
2024/03/25 13:32:06;;;;;;;;;;;26.10;78.50;;;;;;5040960;28;19920;-87
2024/03/25 13:34:32;;;;;;;;;;;25.80;77.10;;;;;;5040178;28;19917;-84
2024/03/25 13:36:57;;;;;;;;;;;25.40;75.70;;;;;;5030917;28;19955;-85
2024/03/25 13:39:23;;;;;;;;;;;25.40;75.70;;;;;;5031051;28;20363;-84
2024/03/25 13:41:48;;;;;;;;;;;24.80;72.50;;;;;;5037541;28;19917;-84
2024/03/25 13:44:15;;;;;;;;;;;24.10;68.90;;;;;;5033712;28;19920;-86
2024/03/25 13:46:40;;;;;;;;;;;23.80;69.40;;;;;;5037145;28;20008;-85
2024/03/25 13:49:06;;;;;;;;;;;23.70;68.70;;;;;;5061695;28;20028;-86
2024/03/25 13:51:31;;;;;;;;;;;23.70;70.30;;;;;;5059541;28;19909;-85
2024/03/25 13:53:57;;;;;;;;;;;23.50;68.30;;;;;;5042410;28;20030;-85
2024/03/25 13:56:22;;;;;;;;;;;22.90;66.80;;;;;;5031092;28;20004;-85
2024/03/25 13:58:48;;;;;;;;;;;22.70;66.10;;;;;;5044594;28;19924;-84
2024/03/25 14:01:15;;;;;;;;;;;22.60;68.10;;;;;;5041111;28;19917;-84
2024/03/25 14:03:40;;;;;;;;;;;22.80;69.50;;;;;;5042856;28;19909;-85
2024/03/25 14:06:06;;;;;;;;;;;22.90;72.10;;;;;;5041541;28;19919;-84
2024/03/25 14:08:31;;;;;;;;;;;22.90;72.00;;;;;;5042186;28;20539;-84
2024/03/25 14:11:02;;;;;;;;;;;22.50;68.80;;;;;;5045171;28;19913;-83
2024/03/25 14:13:27;;;;;;;;;;;22.10;67.40;;;;;;5039289;28;20286;-83
2024/03/25 14:15:53;;;;;;;;;;;21.60;63.90;;;;;;5035460;28;19916;-85
2024/03/25 14:18:18;;;;;;;;;;;21.30;64.10;;;;;;5041603;28;19921;-84
2024/03/25 14:20:44;;;;;;;;;;;21.20;66.30;;;;;;5040699;28;20377;-84
2024/03/25 14:23:09;;;;;;;;;;;21.20;67.20;;;;;;5034142;28;19910;-85
2024/03/25 14:25:35;;;;;;;;;;;21.40;68.50;;;;;;5033693;28;19928;-84
2024/03/25 14:28:00;;;;;;;;;;;21.20;67.40;;;;;;5040923;28;19935;-84
2024/03/25 14:30:26;;;;;;;;;;;21.20;67.80;;;;;;5048110;28;20052;-85